Time;durP1;ratioP1;P1;durP2;ratioP2;P2;SDS_P1;SDS_P2;PMS_P1;PMS_P2;Temp;Humidity;BMP_temperature;BMP_pressure;BME280_temperature;BME280_humidity;BME280_pressure;Samples;Min_cycle;Max_cycle;Signal;HPM_P1;HPM_P2
2021/06/30 00:00:00;;;;;;;12.27;3.03;;;21.40;94.30;;;;;;5137965;27;20040;-71
2021/06/30 00:02:26;;;;;;;11.40;2.97;;;21.50;94.80;;;;;;5137600;28;20101;-71
2021/06/30 00:04:52;;;;;;;10.23;2.53;;;21.40;93.50;;;;;;5137465;28;20062;-71
2021/06/30 00:07:19;;;;;;;14.40;3.22;;;21.40;93.20;;;;;;5137951;28;20050;-71
2021/06/30 00:09:45;;;;;;;7.97;2.60;;;21.20;92.40;;;;;;5137543;28;20065;-71
2021/06/30 00:12:11;;;;;;;13.27;3.42;;;21.20;92.50;;;;;;5137875;28;20023;-71
2021/06/30 00:14:37;;;;;;;8.32;2.60;;;21.00;91.50;;;;;;5138087;28;20027;-71
2021/06/30 00:17:06;;;;;;;8.85;2.30;;;20.80;90.80;;;;;;5137782;28;20088;-71
2021/06/30 00:19:32;;;;;;;7.65;2.13;;;20.80;90.50;;;;;;5137781;28;20303;-71
2021/06/30 00:21:58;;;;;;;9.35;2.20;;;20.70;90.60;;;;;;5137467;28;20019;-71
2021/06/30 00:24:23;;;;;;;6.57;2.20;;;20.70;91.30;;;;;;5137501;28;20022;-71
2021/06/30 00:26:49;;;;;;;13.13;2.92;;;20.60;92.30;;;;;;5137635;28;20035;-71
2021/06/30 00:29:15;;;;;;;9.40;2.35;;;20.40;92.00;;;;;;5137679;28;20019;-71
2021/06/30 00:31:40;;;;;;;12.75;3.00;;;20.40;92.90;;;;;;5137673;28;20103;-71
2021/06/30 00:34:06;;;;;;;10.80;2.53;;;20.30;92.60;;;;;;5137650;28;20398;-71
2021/06/30 00:36:34;;;;;;;11.38;2.70;;;20.30;93.20;;;;;;5137561;28;20426;-70
2021/06/30 00:39:02;;;;;;;10.80;2.53;;;20.30;93.10;;;;;;5137642;28;20369;-71
2021/06/30 00:41:27;;;;;;;10.35;2.85;;;20.10;93.50;;;;;;5137034;28;20110;-71
2021/06/30 00:43:53;;;;;;;10.52;2.88;;;20.10;94.30;;;;;;5137664;28;20183;-71
2021/06/30 00:46:31;;;;;;;9.25;2.88;;;20.10;93.80;;;;;;5137475;28;20277;-71
2021/06/30 00:48:57;;;;;;;13.15;2.63;;;20.20;92.90;;;;;;5139779;27;20019;-71
2021/06/30 00:51:24;;;;;;;9.35;2.95;;;20.20;94.00;;;;;;5141423;27;20030;-71
2021/06/30 00:53:49;;;;;;;9.93;2.58;;;20.20;94.50;;;;;;5141383;27;20033;-70
2021/06/30 00:56:22;;;;;;;12.05;3.42;;;20.30;94.70;;;;;;5140872;27;20495;-71
2021/06/30 00:58:52;;;;;;;6.75;2.53;;;20.30;93.80;;;;;;5141325;27;20328;-71
2021/06/30 01:01:19;;;;;;;13.40;2.70;;;20.20;94.50;;;;;;5141235;27;20076;-70
2021/06/30 01:03:45;;;;;;;11.48;3.35;;;20.30;94.50;;;;;;5141165;27;20027;-71
2021/06/30 01:06:11;;;;;;;12.55;5.03;;;20.30;94.90;;;;;;5140680;27;20027;-70
2021/06/30 01:08:37;;;;;;;12.13;4.45;;;20.30;94.80;;;;;;5140759;27;20026;-70
2021/06/30 01:11:03;;;;;;;12.77;3.30;;;20.30;95.90;;;;;;5141055;27;20025;-71
2021/06/30 01:13:28;;;;;;;9.18;3.00;;;20.30;94.80;;;;;;5141044;27;20031;-70
2021/06/30 01:15:55;;;;;;;11.30;3.10;;;20.40;95.20;;;;;;5140600;27;20446;-71
2021/06/30 01:18:29;;;;;;;10.23;2.85;;;20.30;95.10;;;;;;5140576;27;20023;-70
2021/06/30 01:20:55;;;;;;;11.65;3.17;;;20.20;95.40;;;;;;5140597;27;20427;-70
2021/06/30 01:23:21;;;;;;;9.95;2.90;;;20.20;95.80;;;;;;5140405;27;20157;-70
2021/06/30 01:25:47;;;;;;;16.63;2.90;;;20.20;94.40;;;;;;5140643;27;20102;-71
2021/06/30 01:28:15;;;;;;;10.68;2.92;;;20.30;94.40;;;;;;5140401;27;20019;-70
2021/06/30 01:30:41;;;;;;;12.00;2.53;;;20.30;94.30;;;;;;5140321;27;20104;-70
2021/06/30 01:33:07;;;;;;;13.27;3.20;;;20.30;94.70;;;;;;5140614;27;20039;-70
2021/06/30 01:35:34;;;;;;;13.48;2.90;;;20.30;95.10;;;;;;5140222;27;20336;-70
2021/06/30 01:38:00;;;;;;;14.63;3.08;;;20.10;95.40;;;;;;5140502;27;20423;-70
2021/06/30 01:40:26;;;;;;;15.02;2.97;;;20.10;95.30;;;;;;5140130;27;20046;-70
2021/06/30 01:42:54;;;;;;;11.07;3.03;;;20.10;95.70;;;;;;5140412;27;20031;-70
2021/06/30 01:45:19;;;;;;;12.23;3.55;;;20.20;94.80;;;;;;5140306;27;20065;-70
2021/06/30 01:47:45;;;;;;;11.27;3.15;;;20.30;94.60;;;;;;5140320;27;20102;-70
2021/06/30 01:50:11;;;;;;;11.65;3.35;;;20.40;95.00;;;;;;5139991;27;20027;-70
2021/06/30 01:52:37;;;;;;;16.27;4.15;;;20.40;94.80;;;;;;5139872;27;20030;-70
2021/06/30 01:55:05;;;;;;;9.82;3.38;;;20.40;94.70;;;;;;5139843;27;20051;-70
2021/06/30 01:57:31;;;;;;;13.40;3.03;;;20.50;95.10;;;;;;5139782;27;20024;-70
2021/06/30 01:59:56;;;;;;;16.33;3.50;;;20.50;95.00;;;;;;5139536;27;20076;-70
2021/06/30 02:02:28;;;;;;;12.30;3.85;;;20.60;94.80;;;;;;5140043;27;20019;-70
2021/06/30 02:05:08;;;;;;;12.98;3.38;;;20.70;94.70;;;;;;5139547;27;20464;-70
2021/06/30 02:07:33;;;;;;;11.02;3.33;;;20.70;94.20;;;;;;5139981;27;20023;-71
2021/06/30 02:09:59;;;;;;;13.02;3.92;;;20.60;94.00;;;;;;5139914;27;20103;-70
2021/06/30 02:12:25;;;;;;;9.80;2.92;;;20.60;93.80;;;;;;5139459;27;20363;-70
2021/06/30 02:14:51;;;;;;;12.68;3.42;;;20.50;93.80;;;;;;5139873;27;20141;-70
2021/06/30 02:17:18;;;;;;;7.28;2.50;;;20.50;93.40;;;;;;5139694;27;20027;-70
2021/06/30 02:19:45;;;;;;;8.40;3.20;;;20.50;93.40;;;;;;5139707;27;20027;-70
2021/06/30 02:22:11;;;;;;;9.82;2.70;;;20.40;93.60;;;;;;5139683;27;20334;-70
2021/06/30 02:24:37;;;;;;;13.70;3.45;;;20.40;93.20;;;;;;5139578;27;20412;-70
2021/06/30 02:27:03;;;;;;;11.90;2.92;;;20.30;93.70;;;;;;5139540;27;20047;-70
2021/06/30 02:29:29;;;;;;;16.55;4.50;;;20.30;94.10;;;;;;5139196;27;20027;-70
2021/06/30 02:31:55;;;;;;;14.57;3.65;;;20.40;93.90;;;;;;5139131;27;20025;-70
2021/06/30 02:34:20;;;;;;;12.43;2.50;;;20.40;93.70;;;;;;5139125;27;20026;-70
2021/06/30 02:36:46;;;;;;;11.55;3.05;;;20.30;93.30;;;;;;5139315;27;20026;-70
2021/06/30 02:39:12;;;;;;;16.60;4.40;;;20.20;93.60;;;;;;5139296;27;20080;-70
2021/06/30 02:41:38;;;;;;;13.25;3.00;;;20.10;93.50;;;;;;5139273;27;20393;-70
2021/06/30 02:44:04;;;;;;;14.98;2.78;;;20.10;94.20;;;;;;5139218;27;20035;-70
2021/06/30 02:46:30;;;;;;;13.75;3.15;;;20.10;93.70;;;;;;5139040;27;20027;-70
2021/06/30 02:48:55;;;;;;;10.40;2.67;;;20.10;93.80;;;;;;5139133;27;20468;-70
2021/06/30 02:51:21;;;;;;;9.38;3.05;;;20.00;94.00;;;;;;5139082;27;20046;-70
2021/06/30 02:53:46;;;;;;;10.40;3.40;;;19.80;94.90;;;;;;5139035;27;20027;-70
2021/06/30 02:56:12;;;;;;;8.80;3.15;;;19.70;95.10;;;;;;5138528;27;20334;-70
2021/06/30 02:58:38;;;;;;;10.13;2.92;;;19.70;94.50;;;;;;5138635;27;20031;-70
2021/06/30 03:01:04;;;;;;;11.73;2.60;;;19.80;94.80;;;;;;5138908;27;20034;-70
2021/06/30 03:03:29;;;;;;;8.30;2.70;;;19.80;94.60;;;;;;5138505;27;20419;-70
2021/06/30 03:05:55;;;;;;;14.48;3.90;;;19.80;94.40;;;;;;5138391;27;20106;-70
2021/06/30 03:08:20;;;;;;;10.88;2.97;;;19.80;94.40;;;;;;5138449;27;20050;-70
2021/06/30 03:10:46;;;;;;;10.82;3.58;;;19.70;93.80;;;;;;5138421;27;20015;-70
2021/06/30 03:13:12;;;;;;;10.32;2.85;;;19.70;93.10;;;;;;5138135;27;20035;-70
2021/06/30 03:15:37;;;;;;;14.25;3.13;;;19.70;94.60;;;;;;5138615;27;20023;-70
2021/06/30 03:18:03;;;;;;;11.85;3.42;;;19.60;95.00;;;;;;5138340;27;20035;-70
2021/06/30 03:20:29;;;;;;;11.18;3.40;;;19.60;94.80;;;;;;5138343;27;20126;-70
2021/06/30 03:22:54;;;;;;;8.25;3.08;;;19.60;95.30;;;;;;5138166;27;20050;-70
2021/06/30 03:25:20;;;;;;;8.32;2.50;;;19.60;93.70;;;;;;5138009;27;20034;-70
2021/06/30 03:27:46;;;;;;;13.85;3.65;;;19.40;94.20;;;;;;5138407;27;20051;-70
2021/06/30 03:30:12;;;;;;;12.55;2.83;;;19.20;95.00;;;;;;5138391;27;20362;-70
2021/06/30 03:32:38;;;;;;;13.07;2.90;;;19.10;96.00;;;;;;5138316;27;20023;-70
2021/06/30 03:35:06;;;;;;;9.50;2.85;;;19.00;96.30;;;;;;5137977;27;20312;-70
2021/06/30 03:37:32;;;;;;;11.25;2.78;;;19.00;96.60;;;;;;5138197;27;20030;-70
2021/06/30 03:39:57;;;;;;;7.60;2.40;;;19.10;95.50;;;;;;5137948;27;20315;-70
2021/06/30 03:42:23;;;;;;;14.65;3.80;;;19.20;95.30;;;;;;5137781;27;20035;-70
2021/06/30 03:44:49;;;;;;;9.38;2.90;;;19.30;95.50;;;;;;5138134;27;20027;-70
2021/06/30 03:47:15;;;;;;;16.35;2.90;;;19.30;95.80;;;;;;5137785;27;20032;-70
2021/06/30 03:49:40;;;;;;;7.57;3.08;;;19.30;94.70;;;;;;5137761;27;20015;-70
2021/06/30 03:52:06;;;;;;;8.15;2.67;;;19.30;94.40;;;;;;5138099;27;20053;-70
2021/06/30 03:54:33;;;;;;;11.85;3.08;;;19.30;94.70;;;;;;5137790;27;20035;-70
2021/06/30 03:56:59;;;;;;;13.48;3.25;;;19.40;94.80;;;;;;5137689;27;20441;-70
2021/06/30 03:59:24;;;;;;;11.57;2.88;;;19.30;95.10;;;;;;5138029;27;20031;-70
2021/06/30 04:01:51;;;;;;;15.00;3.53;;;19.30;95.10;;;;;;5138005;28;20023;-70
2021/06/30 04:04:18;;;;;;;14.43;3.15;;;19.20;95.40;;;;;;5137720;28;20027;-70
2021/06/30 04:06:43;;;;;;;6.47;2.47;;;19.20;95.10;;;;;;5137494;28;20030;-70
2021/06/30 04:09:09;;;;;;;8.27;2.63;;;19.20;95.70;;;;;;5137601;28;20024;-70
2021/06/30 04:11:35;;;;;;;13.32;3.10;;;19.20;95.50;;;;;;5137574;28;20026;-70
2021/06/30 04:14:01;;;;;;;10.60;3.13;;;19.30;95.10;;;;;;5137631;28;20027;-70
2021/06/30 04:16:26;;;;;;;8.80;2.60;;;19.20;94.90;;;;;;5137665;28;20027;-70
2021/06/30 04:18:52;;;;;;;17.85;2.90;;;19.30;95.00;;;;;;5137517;28;20315;-70
2021/06/30 04:21:18;;;;;;;11.93;3.10;;;19.30;95.60;;;;;;5137507;28;20031;-70
2021/06/30 04:23:44;;;;;;;10.23;2.50;;;19.30;95.00;;;;;;5140148;27;20027;-70
2021/06/30 04:26:09;;;;;;;10.73;3.05;;;19.40;94.70;;;;;;5141528;27;20381;-70
2021/06/30 04:28:35;;;;;;;11.93;2.83;;;19.40;94.40;;;;;;5141597;27;20030;-70
2021/06/30 04:31:01;;;;;;;9.27;2.78;;;19.50;95.40;;;;;;5141839;27;20019;-70
2021/06/30 04:33:30;;;;;;;7.88;2.42;;;19.60;94.10;;;;;;5141785;27;20459;-70
2021/06/30 04:35:57;;;;;;;11.77;2.88;;;19.60;95.40;;;;;;5141760;27;20340;-70
2021/06/30 04:38:25;;;;;;;16.13;3.45;;;19.60;95.10;;;;;;5141668;27;20027;-70
2021/06/30 04:40:54;;;;;;;8.55;3.20;;;19.60;95.20;;;;;;5141337;27;20110;-70
2021/06/30 04:43:20;;;;;;;11.18;3.22;;;19.70;95.50;;;;;;5141623;27;20035;-70
2021/06/30 04:45:46;;;;;;;10.88;2.78;;;19.80;96.00;;;;;;5141141;27;20432;-70
2021/06/30 04:48:12;;;;;;;8.10;2.40;;;19.90;95.20;;;;;;5141200;27;20019;-70
2021/06/30 04:50:39;;;;;;;9.02;3.08;;;20.00;94.70;;;;;;5141454;27;20075;-70
2021/06/30 04:53:04;;;;;;;14.88;2.70;;;20.10;94.10;;;;;;5141064;27;20464;-70
2021/06/30 04:55:30;;;;;;;10.25;3.00;;;20.20;94.50;;;;;;5140837;27;20055;-70
2021/06/30 04:57:56;;;;;;;5.97;2.42;;;20.40;92.90;;;;;;5141313;27;20075;-70
2021/06/30 05:00:21;;;;;;;10.02;2.67;;;20.50;92.20;;;;;;5140993;27;20054;-70
2021/06/30 05:02:47;;;;;;;11.90;2.53;;;20.60;90.30;;;;;;5140917;27;20055;-70
2021/06/30 05:05:14;;;;;;;8.20;2.90;;;20.70;90.00;;;;;;5140760;27;20027;-70
2021/06/30 05:07:40;;;;;;;11.57;2.70;;;20.80;91.40;;;;;;5140810;27;20102;-70
2021/06/30 05:10:06;;;;;;;7.60;2.95;;;20.90;91.20;;;;;;5140757;27;20107;-70
2021/06/30 05:12:32;;;;;;;12.10;3.20;;;20.90;91.70;;;;;;5141535;27;20057;-70
2021/06/30 05:14:57;;;;;;;10.82;2.70;;;21.00;89.50;;;;;;5140628;27;20359;-70
2021/06/30 05:17:23;;;;;;;8.43;2.67;;;21.10;91.30;;;;;;5140641;27;20068;-70
2021/06/30 05:19:49;;;;;;;7.65;2.20;;;21.20;91.10;;;;;;5140905;27;20031;-70
2021/06/30 05:22:14;;;;;;;10.35;2.20;;;21.20;90.70;;;;;;5140859;27;20015;-70
2021/06/30 05:24:40;;;;;;;8.57;2.17;;;21.20;89.40;;;;;;5140488;27;20464;-70
2021/06/30 05:27:06;;;;;;;10.05;2.30;;;21.30;89.40;;;;;;5140627;27;20106;-70
2021/06/30 05:29:32;;;;;;;8.85;2.30;;;21.30;87.70;;;;;;5140709;27;20099;-70
2021/06/30 05:31:58;;;;;;;8.18;2.75;;;21.30;88.40;;;;;;5140349;27;20376;-70
2021/06/30 05:34:23;;;;;;;11.50;2.63;;;21.40;88.90;;;;;;5139671;27;20061;-70
2021/06/30 05:36:49;;;;;;;9.55;2.50;;;21.40;88.50;;;;;;5140524;27;20023;-70
2021/06/30 05:39:19;;;;;;;10.52;2.60;;;21.50;85.20;;;;;;5140554;27;20118;-70
2021/06/30 05:41:47;;;;;;;8.93;2.28;;;21.40;86.10;;;;;;5140160;27;20027;-70
2021/06/30 05:44:14;;;;;;;13.63;2.42;;;21.40;86.70;;;;;;5140528;27;20039;-70
2021/06/30 05:46:44;;;;;;;8.05;2.83;;;21.30;88.30;;;;;;5140243;27;20034;-70
2021/06/30 05:49:13;;;;;;;10.48;2.55;;;21.30;89.10;;;;;;5141251;27;20323;-70
2021/06/30 05:51:43;;;;;;;9.75;2.50;;;21.40;91.40;;;;;;5140340;27;20102;-70
2021/06/30 05:54:10;;;;;;;9.10;2.38;;;21.50;91.00;;;;;;5139788;27;20023;-70
2021/06/30 05:56:37;;;;;;;9.15;2.38;;;21.60;90.40;;;;;;5140182;27;20315;-70
2021/06/30 05:59:03;;;;;;;11.90;2.65;;;21.80;90.20;;;;;;5139927;27;20038;-70
2021/06/30 06:01:29;;;;;;;13.43;3.03;;;21.90;86.80;;;;;;5139798;27;20023;-70
2021/06/30 06:03:54;;;;;;;16.35;2.70;;;22.20;85.30;;;;;;5140034;27;20102;-70
2021/06/30 06:06:20;;;;;;;11.90;2.33;;;22.40;86.10;;;;;;5139934;27;20292;-71
2021/06/30 06:08:46;;;;;;;8.15;2.35;;;22.80;86.50;;;;;;5139936;27;20411;-70
2021/06/30 06:11:12;;;;;;;11.82;2.80;;;23.10;85.00;;;;;;5139575;27;20285;-71
2021/06/30 06:13:44;;;;;;;9.73;3.15;;;23.30;82.70;;;;;;5139766;27;20080;-71
2021/06/30 06:16:14;;;;;;;9.70;2.13;;;23.40;81.30;;;;;;5139763;27;20034;-71
2021/06/30 06:18:41;;;;;;;7.97;2.08;;;23.40;81.40;;;;;;5139720;27;20035;-71
2021/06/30 06:21:06;;;;;;;13.27;2.38;;;23.60;80.10;;;;;;5139441;27;20034;-71
2021/06/30 06:23:32;;;;;;;9.80;2.45;;;24.20;78.70;;;;;;5139305;27;20027;-71
2021/06/30 06:25:58;;;;;;;9.40;2.40;;;24.80;77.70;;;;;;5139202;27;20023;-71
2021/06/30 06:28:31;;;;;;;9.65;2.08;;;25.20;76.30;;;;;;5139254;27;20023;-71
2021/06/30 06:30:57;;;;;;;8.32;2.17;;;25.60;74.50;;;;;;5139244;27;20415;-71
2021/06/30 06:33:23;;;;;;;10.95;2.72;;;26.00;75.30;;;;;;5139442;27;20023;-71
2021/06/30 06:35:48;;;;;;;8.77;2.72;;;26.20;72.80;;;;;;5139397;27;20034;-71
2021/06/30 06:38:15;;;;;;;6.95;2.47;;;26.00;73.80;;;;;;5139342;27;20028;-71
2021/06/30 06:40:41;;;;;;;11.82;2.42;;;26.20;73.60;;;;;;5138969;27;20026;-71
2021/06/30 06:43:08;;;;;;;7.05;2.58;;;26.50;73.10;;;;;;5139233;27;20031;-71
2021/06/30 06:45:34;;;;;;;7.95;2.03;;;26.60;72.90;;;;;;5138711;27;20037;-71
2021/06/30 06:48:00;;;;;;;9.13;2.30;;;26.50;73.50;;;;;;5138854;27;20027;-71
2021/06/30 06:50:26;;;;;;;9.05;2.88;;;26.90;72.20;;;;;;5139122;27;20025;-71
2021/06/30 06:52:51;;;;;;;8.60;2.60;;;27.50;70.40;;;;;;5139054;27;20308;-71
2021/06/30 06:55:17;;;;;;;8.77;2.97;;;27.90;70.70;;;;;;5138664;27;20053;-71
2021/06/30 06:57:44;;;;;;;8.50;3.30;;;28.20;68.40;;;;;;5138664;27;20034;-71
2021/06/30 07:00:11;;;;;;;9.13;2.50;;;28.40;67.30;;;;;;5138623;27;20030;-71
2021/06/30 07:02:36;;;;;;;7.70;2.42;;;28.70;66.80;;;;;;5138516;27;20079;-71
2021/06/30 07:05:03;;;;;;;7.78;2.33;;;28.30;68.20;;;;;;5138425;27;20350;-71
2021/06/30 07:07:28;;;;;;;11.23;2.80;;;28.10;69.30;;;;;;5138794;27;20040;-71
2021/06/30 07:09:54;;;;;;;10.02;2.72;;;28.40;68.30;;;;;;5138741;27;20039;-71
2021/06/30 07:12:20;;;;;;;10.93;2.97;;;28.70;66.70;;;;;;5138399;27;20438;-70
2021/06/30 07:14:46;;;;;;;12.05;2.85;;;28.90;67.30;;;;;;5138692;27;20092;-71
2021/06/30 07:17:12;;;;;;;10.05;3.17;;;29.20;67.10;;;;;;5138556;27;20031;-71
2021/06/30 07:19:37;;;;;;;8.32;3.03;;;29.40;67.70;;;;;;5138542;27;20023;-71
2021/06/30 07:22:03;;;;;;;10.93;3.35;;;28.60;69.10;;;;;;5138541;27;20042;-71
2021/06/30 07:24:29;;;;;;;9.75;3.40;;;27.60;71.60;;;;;;5138542;27;20419;-71
2021/06/30 07:26:55;;;;;;;13.55;4.18;;;27.00;73.20;;;;;;5137973;27;20411;-71
2021/06/30 07:29:21;;;;;;;11.88;3.58;;;26.90;72.50;;;;;;5138125;27;20023;-71
2021/06/30 07:31:47;;;;;;;9.32;3.78;;;26.20;73.50;;;;;;5138379;27;20043;-70
2021/06/30 07:34:13;;;;;;;11.40;2.88;;;25.80;74.50;;;;;;5138358;27;20039;-70
2021/06/30 07:36:39;;;;;;;10.15;3.63;;;25.60;73.90;;;;;;5138274;27;20034;-71
2021/06/30 07:39:05;;;;;;;8.63;3.60;;;25.20;76.40;;;;;;5138293;27;20331;-71
2021/06/30 07:41:31;;;;;;;14.05;4.10;;;24.90;78.60;;;;;;5138229;27;20076;-71
2021/06/30 07:43:56;;;;;;;11.77;4.55;;;24.50;79.60;;;;;;5138320;27;20039;-71
2021/06/30 07:46:22;;;;;;;10.13;5.22;;;24.40;80.20;;;;;;5137777;27;20031;-71
2021/06/30 07:48:49;;;;;;;12.55;4.55;;;24.00;81.90;;;;;;5138176;27;20050;-71
2021/06/30 07:51:16;;;;;;;14.25;4.45;;;23.70;82.60;;;;;;5138157;27;20023;-71
2021/06/30 07:53:43;;;;;;;10.95;3.92;;;23.60;83.60;;;;;;5138057;27;20403;-71
2021/06/30 07:56:10;;;;;;;10.70;4.28;;;23.70;82.60;;;;;;5137528;27;20487;-71
2021/06/30 07:58:36;;;;;;;11.60;4.38;;;24.30;82.40;;;;;;5119070;27;20050;-71
2021/06/30 08:01:03;;;;;;;10.80;4.80;;;24.70;80.20;;;;;;5138029;27;20030;-71
2021/06/30 08:03:28;;;;;;;8.90;3.88;;;24.80;78.60;;;;;;5137706;28;20027;-71
2021/06/30 08:05:54;;;;;;;10.90;4.28;;;24.70;79.80;;;;;;5137874;28;20023;-71
2021/06/30 08:08:20;;;;;;;9.35;4.20;;;24.80;80.00;;;;;;5137933;28;20066;-71
2021/06/30 08:10:45;;;;;;;13.68;4.53;;;25.70;77.90;;;;;;5137933;28;20411;-71
2021/06/30 08:13:11;;;;;;;8.50;3.28;;;26.50;75.40;;;;;;5137524;28;20365;-71
2021/06/30 08:15:37;;;;;;;10.93;4.22;;;27.30;75.30;;;;;;5137547;28;20039;-71
2021/06/30 08:18:02;;;;;;;14.00;3.72;;;28.20;72.10;;;;;;5137541;28;20031;-71
2021/06/30 08:20:28;;;;;;;12.55;4.20;;;28.70;72.00;;;;;;5137488;28;20027;-71
2021/06/30 08:22:54;;;;;;;9.85;3.38;;;29.40;68.70;;;;;;5137773;28;20068;-71
2021/06/30 08:25:22;;;;;;;9.63;3.70;;;29.90;68.60;;;;;;5137654;28;20027;-71
2021/06/30 08:27:48;;;;;;;13.73;4.03;;;30.00;68.50;;;;;;5137443;28;20023;-71
2021/06/30 08:30:14;;;;;;;14.25;4.40;;;29.50;67.40;;;;;;5137750;28;20094;-71
2021/06/30 08:32:43;;;;;;;9.38;3.83;;;29.10;69.00;;;;;;5137665;28;20034;-71
2021/06/30 08:35:10;;;;;;;9.48;4.10;;;28.80;70.40;;;;;;5137374;28;20031;-71
2021/06/30 08:37:40;;;;;;;13.75;4.50;;;28.40;70.00;;;;;;5137666;28;20385;-71
2021/06/30 08:40:08;;;;;;;13.25;4.57;;;28.60;69.80;;;;;;5137384;28;20027;-71
2021/06/30 08:42:34;;;;;;;12.73;4.65;;;28.80;71.60;;;;;;5137280;28;20020;-71
2021/06/30 08:45:01;;;;;;;13.77;4.00;;;29.20;70.00;;;;;;5137497;28;20023;-71
2021/06/30 08:47:33;;;;;;;13.95;4.55;;;29.70;67.70;;;;;;5137596;28;20083;-71
2021/06/30 08:49:59;;;;;;;11.48;4.18;;;29.70;67.10;;;;;;5137281;28;20072;-71
2021/06/30 08:52:26;;;;;;;10.00;4.15;;;30.10;67.30;;;;;;5137517;28;20054;-71
2021/06/30 08:54:52;;;;;;;10.90;4.28;;;30.70;67.90;;;;;;5137226;28;20392;-71
2021/06/30 08:57:19;;;;;;;9.55;4.57;;;31.40;65.10;;;;;;5137497;28;20102;-71
2021/06/30 08:59:45;;;;;;;12.85;4.57;;;31.40;64.80;;;;;;5137446;28;20027;-71
2021/06/30 09:02:11;;;;;;;12.15;4.60;;;30.40;65.90;;;;;;5137422;28;20061;-70
2021/06/30 09:04:40;;;;;;;15.68;4.78;;;29.70;66.80;;;;;;5137436;28;20308;-70
2021/06/30 09:07:06;;;;;;;9.65;4.50;;;29.70;67.70;;;;;;5137247;28;20083;-70
2021/06/30 09:09:42;;;;;;;11.73;4.97;;;29.00;70.00;;;;;;5137658;27;20102;-70
2021/06/30 09:12:09;;;;;;;17.35;5.80;;;28.30;70.50;;;;;;5140854;27;20016;-70
2021/06/30 09:14:40;;;;;;;11.70;5.28;;;27.30;72.80;;;;;;5141258;27;20031;-70
2021/06/30 09:20:00;;;;;;;14.48;6.05;;;26.30;75.10;;;;;;5140702;27;20373;-69
2021/06/30 09:22:28;;;;;;;20.02;7.68;;;25.70;77.30;;;;;;5140548;27;20423;-70
2021/06/30 09:24:56;;;;;;;14.45;5.85;;;25.40;78.10;;;;;;5140386;27;20110;-70
2021/06/30 09:27:39;;;;;;;14.55;6.22;;;25.20;80.20;;;;;;5140793;27;20023;-70
2021/06/30 09:30:07;;;;;;;21.38;6.10;;;25.20;81.70;;;;;;5140418;27;20030;-70
2021/06/30 09:32:33;;;;;;;12.80;5.88;;;26.10;83.00;;;;;;5140681;27;20023;-70
2021/06/30 09:35:27;;;;;;;14.20;5.78;;;26.50;77.20;;;;;;5140296;27;20059;-70
2021/06/30 09:37:53;;;;;;;17.08;5.88;;;27.80;76.80;;;;;;5140648;27;20023;-70
2021/06/30 09:40:19;;;;;;;14.85;7.97;;;28.00;73.30;;;;;;5140201;27;20299;-70
2021/06/30 09:42:46;;;;;;;17.63;7.47;;;27.50;73.00;;;;;;5140483;27;20031;-70
2021/06/30 09:45:18;;;;;;;12.02;6.82;;;26.90;73.50;;;;;;5140364;27;20023;-71
2021/06/30 09:47:49;;;;;;;15.35;7.47;;;26.30;77.90;;;;;;5140471;27;20023;-70
2021/06/30 09:50:16;;;;;;;14.10;8.07;;;26.40;75.50;;;;;;5140397;27;20019;-70
2021/06/30 09:52:44;;;;;;;13.85;7.55;;;26.20;75.00;;;;;;5139957;27;20030;-70
2021/06/30 09:55:27;;;;;;;18.70;7.38;;;25.80;77.00;;;;;;5139760;27;20043;-70
2021/06/30 09:57:53;;;;;;;14.43;7.13;;;26.60;76.80;;;;;;5139917;27;20024;-70
2021/06/30 10:00:19;;;;;;;12.25;5.75;;;27.70;72.60;;;;;;5140207;27;20031;-70
2021/06/30 10:02:48;;;;;;;11.18;5.50;;;28.70;70.30;;;;;;5139802;27;20031;-70
2021/06/30 10:05:14;;;;;;;10.73;6.50;;;28.50;69.50;;;;;;5139645;27;20015;-70
2021/06/30 10:07:39;;;;;;;17.95;7.82;;;28.70;69.30;;;;;;5140024;27;20035;-70
2021/06/30 10:10:09;;;;;;;13.85;6.65;;;28.20;68.90;;;;;;5139655;27;20434;-70
2021/06/30 10:12:36;;;;;;;10.75;6.07;;;27.90;70.70;;;;;;5139613;27;20114;-70
2021/06/30 10:15:04;;;;;;;12.57;5.50;;;27.50;72.30;;;;;;5139836;27;20020;-70
2021/06/30 10:17:30;;;;;;;11.43;4.53;;;27.70;72.80;;;;;;5136951;27;20027;-70
2021/06/30 10:19:59;;;;;;;12.95;5.40;;;27.80;73.10;;;;;;5126200;27;20035;-70
2021/06/30 10:22:26;;;;;;;12.25;5.25;;;27.30;71.60;;;;;;5139286;27;20065;-70
2021/06/30 10:24:53;;;;;;;14.75;5.90;;;27.00;72.10;;;;;;5139678;27;20022;-70
2021/06/30 10:27:19;;;;;;;14.98;4.75;;;26.90;70.20;;;;;;5139266;27;20440;-70
2021/06/30 10:29:52;;;;;;;8.23;4.60;;;27.50;72.00;;;;;;5139582;27;20353;-70
2021/06/30 10:32:18;;;;;;;12.05;4.57;;;27.30;69.00;;;;;;5139570;27;20361;-70
2021/06/30 10:34:51;;;;;;;7.22;3.78;;;27.30;69.90;;;;;;5139470;27;20051;-70
2021/06/30 10:37:19;;;;;;;7.40;3.08;;;28.10;66.50;;;;;;5139365;27;20031;-70
2021/06/30 10:39:48;;;;;;;10.82;3.35;;;28.40;69.60;;;;;;5139372;27;20027;-70
2021/06/30 10:42:35;;;;;;;6.18;3.40;;;28.20;67.60;;;;;;5139343;27;20027;-71
2021/06/30 10:45:03;;;;;;;8.90;3.53;;;28.70;67.60;;;;;;5139162;27;20035;-70
2021/06/30 10:47:34;;;;;;;6.60;2.85;;;29.40;62.70;;;;;;5138922;27;20115;-70
2021/06/30 10:50:29;;;;;;;5.68;2.50;;;29.90;60.30;;;;;;5139160;27;20136;-71
2021/06/30 10:53:04;;;;;;;7.55;3.35;;;30.40;62.50;;;;;;5139128;27;20397;-70
2021/06/30 10:55:33;;;;;;;8.90;2.80;;;29.80;60.30;;;;;;5138544;27;20051;-70
2021/06/30 10:58:11;;;;;;;6.18;2.33;;;28.80;63.80;;;;;;5138985;27;20047;-70
2021/06/30 11:00:57;;;;;;;10.20;3.50;;;28.40;68.60;;;;;;5138659;27;20023;-70
2021/06/30 11:03:35;;;;;;;4.82;2.20;;;28.70;61.70;;;;;;5138569;27;20031;-70
2021/06/30 11:06:07;;;;;;;10.85;4.72;;;28.60;63.50;;;;;;5138422;27;20433;-70
2021/06/30 11:08:57;;;;;;;9.95;4.28;;;29.00;60.20;;;;;;5138495;27;20027;-70
2021/06/30 11:11:29;;;;;;;6.97;3.30;;;28.80;60.10;;;;;;5138482;27;20048;-70
2021/06/30 11:14:04;;;;;;;7.75;3.55;;;28.60;64.00;;;;;;5138667;27;20418;-70
2021/06/30 11:16:39;;;;;;;7.68;3.30;;;28.00;63.70;;;;;;5138323;27;20065;-70
2021/06/30 11:19:07;;;;;;;8.20;4.32;;;27.60;66.90;;;;;;5138325;27;20069;-70
2021/06/30 11:21:52;;;;;;;4.28;3.13;;;27.40;66.70;;;;;;5138584;27;20080;-70
2021/06/30 11:24:36;;;;;;;9.25;4.55;;;27.50;68.80;;;;;;5138269;27;20031;-69
2021/06/30 11:27:38;;;;;;;11.00;4.50;;;27.30;65.90;;;;;;5138349;27;20104;-70
2021/06/30 11:30:07;;;;;;;10.57;4.25;;;27.50;69.10;;;;;;5132250;27;20038;-69
2021/06/30 11:32:39;;;;;;;9.93;4.22;;;28.10;68.10;;;;;;5137316;27;20445;-69
2021/06/30 11:35:16;;;;;;;11.73;5.07;;;28.30;65.90;;;;;;5138352;27;20088;-70
2021/06/30 11:37:44;;;;;;;8.48;3.83;;;28.00;65.30;;;;;;5138366;27;20098;-70
2021/06/30 11:40:21;;;;;;;9.27;3.70;;;27.80;68.70;;;;;;5138303;27;20161;-70
2021/06/30 11:42:50;;;;;;;4.47;1.83;;;27.40;67.70;;;;;;5138291;27;20115;-70
2021/06/30 11:45:31;;;;;;;7.32;1.02;;;27.90;58.80;;;;;;5138128;27;20038;-70
2021/06/30 11:48:04;;;;;;;9.98;1.83;;;28.30;55.30;;;;;;5137949;27;20487;-70
2021/06/30 11:50:54;;;;;;;3.85;1.05;;;28.70;55.50;;;;;;5138186;27;20172;-70
2021/06/30 11:53:40;;;;;;;7.68;1.40;;;29.10;55.10;;;;;;5138148;27;20107;-70
2021/06/30 11:56:08;;;;;;;7.00;1.52;;;28.90;57.40;;;;;;5137643;27;20339;-70
2021/06/30 11:58:42;;;;;;;4.32;1.13;;;28.40;54.30;;;;;;5138025;27;20055;-70
2021/06/30 12:01:45;;;;;;;2.75;1.05;;;27.90;57.20;;;;;;5138060;27;20049;-70
2021/06/30 12:04:14;;;;;;;6.45;1.50;;;27.70;60.50;;;;;;5018241;28;20057;-70
2021/06/30 12:06:41;;;;;;;3.03;0.90;;;27.60;55.60;;;;;;5119580;28;20047;-70
2021/06/30 12:09:21;;;;;;;3.88;1.10;;;27.50;55.50;;;;;;5137642;28;20053;-70
2021/06/30 12:12:00;;;;;;;6.63;1.50;;;27.40;58.50;;;;;;5137961;28;20027;-70
2021/06/30 12:14:29;;;;;;;7.25;1.52;;;27.20;57.80;;;;;;5138078;28;20070;-70
2021/06/30 12:17:06;;;;;;;2.30;0.80;;;27.30;62.70;;;;;;5137840;28;20035;-70
2021/06/30 12:19:46;;;;;;;5.85;1.13;;;27.10;62.90;;;;;;5137551;28;20023;-70
2021/06/30 12:22:21;;;;;;;6.32;1.30;;;27.10;59.60;;;;;;5137859;28;20019;-70
2021/06/30 12:24:55;;;;;;;7.28;1.40;;;26.90;58.50;;;;;;5137851;28;20080;-70
2021/06/30 12:27:22;;;;;;;6.27;1.10;;;27.20;59.70;;;;;;5137427;28;20368;-70
2021/06/30 12:29:59;;;;;;;4.60;1.00;;;27.50;52.50;;;;;;5137719;28;20023;-70
2021/06/30 12:32:26;;;;;;;3.80;1.02;;;27.60;59.30;;;;;;5137401;28;20486;-70
2021/06/30 12:34:56;;;;;;;6.88;1.10;;;27.70;57.00;;;;;;5137410;28;20097;-70
2021/06/30 12:37:24;;;;;;;6.53;1.30;;;27.90;55.60;;;;;;5137446;28;20441;-70
2021/06/30 12:40:03;;;;;;;4.10;1.13;;;27.60;54.10;;;;;;5137653;28;20318;-70
2021/06/30 12:42:50;;;;;;;6.13;1.27;;;27.10;54.20;;;;;;5137336;28;20034;-70
2021/06/30 12:45:39;;;;;;;4.22;0.95;;;26.90;56.00;;;;;;5140368;27;20438;-70
2021/06/30 12:48:12;;;;;;;5.13;0.90;;;26.70;53.90;;;;;;5141398;27;20038;-70